sensor_id;sensor_type;location;lat;lon;timestamp;temperature;humidity
26954;DHT22;14508;50.924;11.600;2022-07-29T00:01:14;18.90;49.80
26954;DHT22;14508;50.924;11.600;2022-07-29T00:03:40;18.90;49.90
26954;DHT22;14508;50.924;11.600;2022-07-29T00:06:07;19.00;50.10
26954;DHT22;14508;50.924;11.600;2022-07-29T00:08:34;18.90;50.10
26954;DHT22;14508;50.924;11.600;2022-07-29T00:11:00;18.90;50.00
26954;DHT22;14508;50.924;11.600;2022-07-29T00:13:29;18.90;50.10
26954;DHT22;14508;50.924;11.600;2022-07-29T00:15:55;18.90;50.20
26954;DHT22;14508;50.924;11.600;2022-07-29T00:18:22;18.80;50.20
26954;DHT22;14508;50.924;11.600;2022-07-29T00:20:49;18.80;50.30
26954;DHT22;14508;50.924;11.600;2022-07-29T00:23:15;18.80;50.50
26954;DHT22;14508;50.924;11.600;2022-07-29T00:25:42;18.80;50.60
26954;DHT22;14508;50.924;11.600;2022-07-29T00:28:09;18.70;50.70
26954;DHT22;14508;50.924;11.600;2022-07-29T00:30:37;18.70;50.70
26954;DHT22;14508;50.924;11.600;2022-07-29T00:33:03;18.70;50.70
26954;DHT22;14508;50.924;11.600;2022-07-29T00:35:30;18.70;50.80
26954;DHT22;14508;50.924;11.600;2022-07-29T00:38:12;18.70;51.00
26954;DHT22;14508;50.924;11.600;2022-07-29T00:40:40;18.60;51.00
26954;DHT22;14508;50.924;11.600;2022-07-29T00:43:07;18.60;51.00
26954;DHT22;14508;50.924;11.600;2022-07-29T00:45:34;18.50;51.10
26954;DHT22;14508;50.924;11.600;2022-07-29T00:48:02;18.50;51.20
26954;DHT22;14508;50.924;11.600;2022-07-29T00:50:30;18.50;51.30
26954;DHT22;14508;50.924;11.600;2022-07-29T00:52:58;18.40;51.30
26954;DHT22;14508;50.924;11.600;2022-07-29T00:55:25;18.40;51.40
26954;DHT22;14508;50.924;11.600;2022-07-29T00:57:52;18.40;51.50
26954;DHT22;14508;50.924;11.600;2022-07-29T01:00:21;18.40;51.60
26954;DHT22;14508;50.924;11.600;2022-07-29T01:02:48;18.40;51.80
26954;DHT22;14508;50.924;11.600;2022-07-29T01:05:21;18.40;51.80
26954;DHT22;14508;50.924;11.600;2022-07-29T01:07:51;18.30;51.90
26954;DHT22;14508;50.924;11.600;2022-07-29T01:10:19;18.30;52.00
26954;DHT22;14508;50.924;11.600;2022-07-29T01:12:49;18.30;52.10
26954;DHT22;14508;50.924;11.600;2022-07-29T01:15:18;18.20;52.20
26954;DHT22;14508;50.924;11.600;2022-07-29T01:17:48;18.20;52.30
26954;DHT22;14508;50.924;11.600;2022-07-29T01:20:25;18.20;52.40
26954;DHT22;14508;50.924;11.600;2022-07-29T01:25:51;18.10;52.60
26954;DHT22;14508;50.924;11.600;2022-07-29T01:28:51;18.10;52.80
26954;DHT22;14508;50.924;11.600;2022-07-29T01:31:22;18.10;52.90
26954;DHT22;14508;50.924;11.600;2022-07-29T01:33:52;18.10;53.00
26954;DHT22;14508;50.924;11.600;2022-07-29T01:36:25;18.00;53.00
26954;DHT22;14508;50.924;11.600;2022-07-29T01:38:58;18.00;53.20
26954;DHT22;14508;50.924;11.600;2022-07-29T01:41:26;18.00;53.50
26954;DHT22;14508;50.924;11.600;2022-07-29T01:43:59;18.00;54.00
26954;DHT22;14508;50.924;11.600;2022-07-29T01:46:33;17.90;54.20
26954;DHT22;14508;50.924;11.600;2022-07-29T01:49:07;17.90;54.40
26954;DHT22;14508;50.924;11.600;2022-07-29T01:51:40;17.90;54.70
26954;DHT22;14508;50.924;11.600;2022-07-29T01:54:13;17.80;54.70
26954;DHT22;14508;50.924;11.600;2022-07-29T01:56:42;17.80;54.90
26954;DHT22;14508;50.924;11.600;2022-07-29T01:59:11;17.70;54.90
26954;DHT22;14508;50.924;11.600;2022-07-29T02:01:39;17.70;55.10
26954;DHT22;14508;50.924;11.600;2022-07-29T02:04:08;17.70;55.20
26954;DHT22;14508;50.924;11.600;2022-07-29T02:06:38;17.70;55.30
26954;DHT22;14508;50.924;11.600;2022-07-29T02:09:06;17.60;55.40
26954;DHT22;14508;50.924;11.600;2022-07-29T02:11:35;17.60;55.50
26954;DHT22;14508;50.924;11.600;2022-07-29T02:14:05;17.60;55.50
26954;DHT22;14508;50.924;11.600;2022-07-29T02:16:35;17.60;55.60
26954;DHT22;14508;50.924;11.600;2022-07-29T02:19:04;17.60;55.80
26954;DHT22;14508;50.924;11.600;2022-07-29T02:21:32;17.50;55.90
26954;DHT22;14508;50.924;11.600;2022-07-29T02:24:01;17.60;56.10
26954;DHT22;14508;50.924;11.600;2022-07-29T02:26:29;17.50;56.30
26954;DHT22;14508;50.924;11.600;2022-07-29T02:28:58;17.50;56.40
26954;DHT22;14508;50.924;11.600;2022-07-29T02:31:30;17.40;56.50
26954;DHT22;14508;50.924;11.600;2022-07-29T02:34:01;17.30;56.70
26954;DHT22;14508;50.924;11.600;2022-07-29T02:36:29;17.30;56.90
26954;DHT22;14508;50.924;11.600;2022-07-29T02:38:58;17.20;57.00
26954;DHT22;14508;50.924;11.600;2022-07-29T02:41:28;17.20;57.10
26954;DHT22;14508;50.924;11.600;2022-07-29T02:43:58;17.10;57.30
26954;DHT22;14508;50.924;11.600;2022-07-29T02:46:31;17.10;57.50
26954;DHT22;14508;50.924;11.600;2022-07-29T02:49:04;17.00;57.70
26954;DHT22;14508;50.924;11.600;2022-07-29T02:51:34;16.90;58.40
26954;DHT22;14508;50.924;11.600;2022-07-29T02:54:06;16.90;58.10
26954;DHT22;14508;50.924;11.600;2022-07-29T02:56:36;16.80;58.20
26954;DHT22;14508;50.924;11.600;2022-07-29T02:59:08;16.80;58.50
26954;DHT22;14508;50.924;11.600;2022-07-29T03:01:39;16.80;58.70
26954;DHT22;14508;50.924;11.600;2022-07-29T03:04:08;16.70;58.90
26954;DHT22;14508;50.924;11.600;2022-07-29T03:06:37;16.60;59.20
26954;DHT22;14508;50.924;11.600;2022-07-29T03:09:04;16.50;59.50
26954;DHT22;14508;50.924;11.600;2022-07-29T03:11:33;16.50;59.70
26954;DHT22;14508;50.924;11.600;2022-07-29T03:14:01;16.40;59.80
26954;DHT22;14508;50.924;11.600;2022-07-29T03:16:28;16.40;60.00
26954;DHT22;14508;50.924;11.600;2022-07-29T03:18:56;16.30;60.20
26954;DHT22;14508;50.924;11.600;2022-07-29T03:21:24;16.30;60.50
26954;DHT22;14508;50.924;11.600;2022-07-29T03:23:51;16.30;60.70
26954;DHT22;14508;50.924;11.600;2022-07-29T03:26:18;16.30;60.80
26954;DHT22;14508;50.924;11.600;2022-07-29T03:28:45;16.30;61.10
26954;DHT22;14508;50.924;11.600;2022-07-29T03:31:12;16.30;61.50
26954;DHT22;14508;50.924;11.600;2022-07-29T03:33:39;16.30;62.40
26954;DHT22;14508;50.924;11.600;2022-07-29T03:36:05;16.30;61.80
26954;DHT22;14508;50.924;11.600;2022-07-29T03:38:34;16.30;61.80
26954;DHT22;14508;50.924;11.600;2022-07-29T03:41:05;16.20;62.00
26954;DHT22;14508;50.924;11.600;2022-07-29T03:43:36;16.20;62.30
26954;DHT22;14508;50.924;11.600;2022-07-29T03:46:04;16.30;62.60
26954;DHT22;14508;50.924;11.600;2022-07-29T03:48:33;16.30;62.80
26954;DHT22;14508;50.924;11.600;2022-07-29T03:51:01;16.30;62.80
26954;DHT22;14508;50.924;11.600;2022-07-29T03:53:27;16.30;62.90
26954;DHT22;14508;50.924;11.600;2022-07-29T03:55:59;16.30;63.10
26954;DHT22;14508;50.924;11.600;2022-07-29T03:58:30;16.30;63.50
26954;DHT22;14508;50.924;11.600;2022-07-29T04:00:58;16.30;63.70
26954;DHT22;14508;50.924;11.600;2022-07-29T04:03:25;16.30;63.80
26954;DHT22;14508;50.924;11.600;2022-07-29T04:05:59;16.30;63.90
26954;DHT22;14508;50.924;11.600;2022-07-29T04:08:26;16.40;64.00
26954;DHT22;14508;50.924;11.600;2022-07-29T04:10:53;16.40;64.10
26954;DHT22;14508;50.924;11.600;2022-07-29T04:13:21;16.40;64.40
26954;DHT22;14508;50.924;11.600;2022-07-29T04:15:48;16.40;64.20
26954;DHT22;14508;50.924;11.600;2022-07-29T04:18:14;16.50;64.20
26954;DHT22;14508;50.924;11.600;2022-07-29T04:20:41;16.50;64.10
26954;DHT22;14508;50.924;11.600;2022-07-29T04:23:08;16.60;64.00
26954;DHT22;14508;50.924;11.600;2022-07-29T04:25:37;16.60;63.90
26954;DHT22;14508;50.924;11.600;2022-07-29T04:28:04;16.60;64.10
26954;DHT22;14508;50.924;11.600;2022-07-29T04:30:33;16.60;64.20
26954;DHT22;14508;50.924;11.600;2022-07-29T04:33:00;16.70;64.50
26954;DHT22;14508;50.924;11.600;2022-07-29T04:35:28;16.70;64.60
26954;DHT22;14508;50.924;11.600;2022-07-29T04:37:54;16.70;64.70
26954;DHT22;14508;50.924;11.600;2022-07-29T04:40:21;16.80;64.90
26954;DHT22;14508;50.924;11.600;2022-07-29T04:42:48;16.80;65.00
26954;DHT22;14508;50.924;11.600;2022-07-29T04:45:15;16.80;65.00
26954;DHT22;14508;50.924;11.600;2022-07-29T04:47:43;16.90;65.20
26954;DHT22;14508;50.924;11.600;2022-07-29T04:50:10;16.90;65.20
26954;DHT22;14508;50.924;11.600;2022-07-29T04:52:37;17.00;65.20
26954;DHT22;14508;50.924;11.600;2022-07-29T04:55:05;17.00;65.10
26954;DHT22;14508;50.924;11.600;2022-07-29T04:57:32;17.10;65.00
26954;DHT22;14508;50.924;11.600;2022-07-29T04:59:59;17.10;64.80
26954;DHT22;14508;50.924;11.600;2022-07-29T05:02:26;17.10;64.40
26954;DHT22;14508;50.924;11.600;2022-07-29T05:04:54;17.20;64.30
26954;DHT22;14508;50.924;11.600;2022-07-29T05:07:20;17.20;64.00
26954;DHT22;14508;50.924;11.600;2022-07-29T05:09:47;17.20;63.40
26954;DHT22;14508;50.924;11.600;2022-07-29T05:12:14;17.20;63.10
26954;DHT22;14508;50.924;11.600;2022-07-29T05:14:41;17.20;63.00
26954;DHT22;14508;50.924;11.600;2022-07-29T05:17:07;17.20;62.80
26954;DHT22;14508;50.924;11.600;2022-07-29T05:19:34;17.20;62.90
26954;DHT22;14508;50.924;11.600;2022-07-29T05:22:02;17.30;62.70
26954;DHT22;14508;50.924;11.600;2022-07-29T05:24:29;17.30;62.70
26954;DHT22;14508;50.924;11.600;2022-07-29T05:26:56;17.30;62.80
26954;DHT22;14508;50.924;11.600;2022-07-29T05:29:22;17.30;63.10
26954;DHT22;14508;50.924;11.600;2022-07-29T05:31:49;17.30;63.20
26954;DHT22;14508;50.924;11.600;2022-07-29T05:34:17;17.20;63.40
26954;DHT22;14508;50.924;11.600;2022-07-29T05:36:44;17.20;63.90
26954;DHT22;14508;50.924;11.600;2022-07-29T05:39:12;17.20;64.30
26954;DHT22;14508;50.924;11.600;2022-07-29T05:41:39;17.30;64.70
26954;DHT22;14508;50.924;11.600;2022-07-29T05:44:06;17.30;64.70
26954;DHT22;14508;50.924;11.600;2022-07-29T05:46:33;17.30;64.80
26954;DHT22;14508;50.924;11.600;2022-07-29T05:48:59;17.30;64.50
26954;DHT22;14508;50.924;11.600;2022-07-29T05:51:28;17.20;64.50
26954;DHT22;14508;50.924;11.600;2022-07-29T05:53:55;17.20;65.00
26954;DHT22;14508;50.924;11.600;2022-07-29T05:56:23;17.20;65.40
26954;DHT22;14508;50.924;11.600;2022-07-29T05:58:50;17.20;65.30
26954;DHT22;14508;50.924;11.600;2022-07-29T06:01:16;17.20;65.30
26954;DHT22;14508;50.924;11.600;2022-07-29T06:03:43;17.20;65.20
26954;DHT22;14508;50.924;11.600;2022-07-29T06:06:10;17.30;65.10
26954;DHT22;14508;50.924;11.600;2022-07-29T06:08:37;17.30;65.20
26954;DHT22;14508;50.924;11.600;2022-07-29T06:11:04;17.30;65.30
26954;DHT22;14508;50.924;11.600;2022-07-29T06:13:32;17.40;64.90
26954;DHT22;14508;50.924;11.600;2022-07-29T06:15:59;17.50;64.80
26954;DHT22;14508;50.924;11.600;2022-07-29T06:18:26;17.70;64.60
26954;DHT22;14508;50.924;11.600;2022-07-29T06:20:53;17.80;64.00
26954;DHT22;14508;50.924;11.600;2022-07-29T06:23:20;17.90;63.50
26954;DHT22;14508;50.924;11.600;2022-07-29T06:25:47;18.10;62.90
26954;DHT22;14508;50.924;11.600;2022-07-29T06:28:14;18.30;62.50
26954;DHT22;14508;50.924;11.600;2022-07-29T06:30:42;18.40;61.20
26954;DHT22;14508;50.924;11.600;2022-07-29T06:33:08;18.50;61.00
26954;DHT22;14508;50.924;11.600;2022-07-29T06:35:35;18.60;60.90
26954;DHT22;14508;50.924;11.600;2022-07-29T06:38:02;18.80;60.50
26954;DHT22;14508;50.924;11.600;2022-07-29T06:40:29;18.90;59.70
26954;DHT22;14508;50.924;11.600;2022-07-29T06:43:13;19.00;59.30
26954;DHT22;14508;50.924;11.600;2022-07-29T06:45:41;19.10;58.90
26954;DHT22;14508;50.924;11.600;2022-07-29T06:48:08;19.30;58.40
26954;DHT22;14508;50.924;11.600;2022-07-29T06:50:35;19.50;57.90
26954;DHT22;14508;50.924;11.600;2022-07-29T06:53:02;19.70;57.70
26954;DHT22;14508;50.924;11.600;2022-07-29T06:55:29;19.80;56.90
26954;DHT22;14508;50.924;11.600;2022-07-29T06:57:55;20.00;56.10
26954;DHT22;14508;50.924;11.600;2022-07-29T07:00:22;20.10;55.70
26954;DHT22;14508;50.924;11.600;2022-07-29T07:02:50;20.20;55.40
26954;DHT22;14508;50.924;11.600;2022-07-29T07:05:17;20.10;55.40
26954;DHT22;14508;50.924;11.600;2022-07-29T07:07:43;20.10;55.30
26954;DHT22;14508;50.924;11.600;2022-07-29T07:10:10;20.20;55.10
26954;DHT22;14508;50.924;11.600;2022-07-29T07:12:37;20.30;54.90
26954;DHT22;14508;50.924;11.600;2022-07-29T07:15:04;20.50;54.70
26954;DHT22;14508;50.924;11.600;2022-07-29T07:17:31;20.70;54.10
26954;DHT22;14508;50.924;11.600;2022-07-29T07:19:59;21.00;53.80
26954;DHT22;14508;50.924;11.600;2022-07-29T07:22:26;21.10;53.40
26954;DHT22;14508;50.924;11.600;2022-07-29T07:24:52;21.30;53.00
26954;DHT22;14508;50.924;11.600;2022-07-29T07:27:19;21.50;52.50
26954;DHT22;14508;50.924;11.600;2022-07-29T07:29:46;21.50;52.30
26954;DHT22;14508;50.924;11.600;2022-07-29T07:32:12;21.40;52.30
26954;DHT22;14508;50.924;11.600;2022-07-29T07:34:41;21.50;52.40
26954;DHT22;14508;50.924;11.600;2022-07-29T07:37:09;21.60;52.20
26954;DHT22;14508;50.924;11.600;2022-07-29T07:39:36;21.70;52.10
26954;DHT22;14508;50.924;11.600;2022-07-29T07:42:03;21.90;52.20
26954;DHT22;14508;50.924;11.600;2022-07-29T07:44:29;22.10;51.10
26954;DHT22;14508;50.924;11.600;2022-07-29T07:46:56;22.20;50.80
26954;DHT22;14508;50.924;11.600;2022-07-29T07:49:23;22.30;50.60
26954;DHT22;14508;50.924;11.600;2022-07-29T07:51:50;22.50;50.60
26954;DHT22;14508;50.924;11.600;2022-07-29T07:54:19;22.60;50.30
26954;DHT22;14508;50.924;11.600;2022-07-29T07:56:46;22.70;50.10
26954;DHT22;14508;50.924;11.600;2022-07-29T07:59:14;22.80;50.10
26954;DHT22;14508;50.924;11.600;2022-07-29T08:01:41;22.70;50.00
26954;DHT22;14508;50.924;11.600;2022-07-29T08:04:07;22.40;50.10
26954;DHT22;14508;50.924;11.600;2022-07-29T08:06:34;22.20;50.60
26954;DHT22;14508;50.924;11.600;2022-07-29T08:09:02;22.00;51.00
26954;DHT22;14508;50.924;11.600;2022-07-29T08:11:31;21.80;51.40
26954;DHT22;14508;50.924;11.600;2022-07-29T08:13:58;21.80;51.70
26954;DHT22;14508;50.924;11.600;2022-07-29T08:16:26;21.80;51.90
26954;DHT22;14508;50.924;11.600;2022-07-29T08:18:56;22.10;52.00
26954;DHT22;14508;50.924;11.600;2022-07-29T08:21:23;22.30;51.70
26954;DHT22;14508;50.924;11.600;2022-07-29T08:23:51;22.50;51.50
26954;DHT22;14508;50.924;11.600;2022-07-29T08:26:40;22.60;50.80
26954;DHT22;14508;50.924;11.600;2022-07-29T08:29:07;22.80;50.70
26954;DHT22;14508;50.924;11.600;2022-07-29T08:31:33;22.90;50.50
26954;DHT22;14508;50.924;11.600;2022-07-29T08:34:00;23.10;50.20
26954;DHT22;14508;50.924;11.600;2022-07-29T08:36:27;23.30;49.70
26954;DHT22;14508;50.924;11.600;2022-07-29T08:38:54;23.50;49.50
26954;DHT22;14508;50.924;11.600;2022-07-29T08:41:22;23.60;49.30
26954;DHT22;14508;50.924;11.600;2022-07-29T08:43:50;23.70;49.00
26954;DHT22;14508;50.924;11.600;2022-07-29T08:46:18;23.90;48.70
26954;DHT22;14508;50.924;11.600;2022-07-29T08:48:45;24.10;48.20
26954;DHT22;14508;50.924;11.600;2022-07-29T08:51:14;24.30;47.90
26954;DHT22;14508;50.924;11.600;2022-07-29T08:53:42;24.40;47.20
26954;DHT22;14508;50.924;11.600;2022-07-29T08:56:11;24.40;47.30
26954;DHT22;14508;50.924;11.600;2022-07-29T08:58:39;24.50;47.00
26954;DHT22;14508;50.924;11.600;2022-07-29T09:01:08;24.60;46.80
26954;DHT22;14508;50.924;11.600;2022-07-29T09:06:03;25.00;46.70
26954;DHT22;14508;50.924;11.600;2022-07-29T09:08:31;25.10;46.40
26954;DHT22;14508;50.924;11.600;2022-07-29T09:11:00;25.10;46.10
26954;DHT22;14508;50.924;11.600;2022-07-29T09:13:27;25.20;46.10
26954;DHT22;14508;50.924;11.600;2022-07-29T09:15:54;25.40;45.90
26954;DHT22;14508;50.924;11.600;2022-07-29T09:18:35;25.40;45.70
26954;DHT22;14508;50.924;11.600;2022-07-29T09:21:03;25.50;45.60
26954;DHT22;14508;50.924;11.600;2022-07-29T09:24:02;25.60;45.50
26954;DHT22;14508;50.924;11.600;2022-07-29T09:26:30;25.70;44.90
26954;DHT22;14508;50.924;11.600;2022-07-29T09:28:57;25.80;44.40
26954;DHT22;14508;50.924;11.600;2022-07-29T09:31:32;25.80;44.30
26954;DHT22;14508;50.924;11.600;2022-07-29T09:34:01;25.80;44.60
26954;DHT22;14508;50.924;11.600;2022-07-29T09:36:28;25.90;44.80
26954;DHT22;14508;50.924;11.600;2022-07-29T09:38:58;26.10;43.30
26954;DHT22;14508;50.924;11.600;2022-07-29T09:41:26;26.30;43.10
26954;DHT22;14508;50.924;11.600;2022-07-29T09:43:55;26.40;42.70
26954;DHT22;14508;50.924;11.600;2022-07-29T09:46:22;26.60;42.50
26954;DHT22;14508;50.924;11.600;2022-07-29T09:49:10;26.70;42.10
26954;DHT22;14508;50.924;11.600;2022-07-29T09:51:37;26.90;41.60
26954;DHT22;14508;50.924;11.600;2022-07-29T09:54:20;27.00;41.10
26954;DHT22;14508;50.924;11.600;2022-07-29T09:56:47;27.10;40.90
26954;DHT22;14508;50.924;11.600;2022-07-29T09:59:14;27.20;40.50
26954;DHT22;14508;50.924;11.600;2022-07-29T10:01:41;27.40;40.10
26954;DHT22;14508;50.924;11.600;2022-07-29T10:04:09;27.60;39.30
26954;DHT22;14508;50.924;11.600;2022-07-29T10:06:55;27.90;38.90
26954;DHT22;14508;50.924;11.600;2022-07-29T10:09:23;28.20;38.30
26954;DHT22;14508;50.924;11.600;2022-07-29T10:12:03;28.30;37.90
26954;DHT22;14508;50.924;11.600;2022-07-29T10:14:31;28.70;37.70
26954;DHT22;14508;50.924;11.600;2022-07-29T10:16:59;28.90;37.60
26954;DHT22;14508;50.924;11.600;2022-07-29T10:19:28;29.00;37.60
26954;DHT22;14508;50.924;11.600;2022-07-29T10:21:56;29.10;37.00
26954;DHT22;14508;50.924;11.600;2022-07-29T10:24:24;29.20;37.30
26954;DHT22;14508;50.924;11.600;2022-07-29T10:26:52;29.20;37.50
26954;DHT22;14508;50.924;11.600;2022-07-29T10:29:20;29.10;36.70
26954;DHT22;14508;50.924;11.600;2022-07-29T10:31:52;29.00;36.90
26954;DHT22;14508;50.924;11.600;2022-07-29T10:34:30;28.90;37.00
26954;DHT22;14508;50.924;11.600;2022-07-29T10:37:07;28.90;36.60
26954;DHT22;14508;50.924;11.600;2022-07-29T10:39:43;28.70;36.70
26954;DHT22;14508;50.924;11.600;2022-07-29T10:42:18;28.70;36.90
26954;DHT22;14508;50.924;11.600;2022-07-29T10:44:46;28.60;36.70
26954;DHT22;14508;50.924;11.600;2022-07-29T10:47:20;28.50;37.10
26954;DHT22;14508;50.924;11.600;2022-07-29T10:49:57;28.40;37.90
26954;DHT22;14508;50.924;11.600;2022-07-29T10:52:25;28.30;38.30
26954;DHT22;14508;50.924;11.600;2022-07-29T10:55:31;28.30;37.40
26954;DHT22;14508;50.924;11.600;2022-07-29T10:58:17;28.30;37.80
26954;DHT22;14508;50.924;11.600;2022-07-29T11:00:45;28.30;38.10
26954;DHT22;14508;50.924;11.600;2022-07-29T11:03:42;28.50;37.90
26954;DHT22;14508;50.924;11.600;2022-07-29T11:06:10;28.80;37.90
26954;DHT22;14508;50.924;11.600;2022-07-29T11:08:37;29.10;37.80
26954;DHT22;14508;50.924;11.600;2022-07-29T11:11:34;29.40;37.50
26954;DHT22;14508;50.924;11.600;2022-07-29T11:14:02;29.60;36.50
26954;DHT22;14508;50.924;11.600;2022-07-29T11:17:00;29.80;36.20
26954;DHT22;14508;50.924;11.600;2022-07-29T11:19:28;29.70;36.60
26954;DHT22;14508;50.924;11.600;2022-07-29T11:21:54;29.70;36.40
26954;DHT22;14508;50.924;11.600;2022-07-29T11:24:22;29.60;35.80
26954;DHT22;14508;50.924;11.600;2022-07-29T11:27:09;29.50;36.00
26954;DHT22;14508;50.924;11.600;2022-07-29T11:29:40;29.40;36.00
26954;DHT22;14508;50.924;11.600;2022-07-29T11:32:11;29.40;36.20
26954;DHT22;14508;50.924;11.600;2022-07-29T11:34:38;29.50;36.30
26954;DHT22;14508;50.924;11.600;2022-07-29T11:37:22;29.70;36.30
26954;DHT22;14508;50.924;11.600;2022-07-29T11:40:10;29.90;36.60
26954;DHT22;14508;50.924;11.600;2022-07-29T11:42:45;30.00;36.50
26954;DHT22;14508;50.924;11.600;2022-07-29T11:45:14;30.00;36.40
26954;DHT22;14508;50.924;11.600;2022-07-29T11:47:51;30.00;36.60
26954;DHT22;14508;50.924;11.600;2022-07-29T11:50:28;30.00;36.00
26954;DHT22;14508;50.924;11.600;2022-07-29T11:52:56;29.90;36.10
26954;DHT22;14508;50.924;11.600;2022-07-29T11:55:24;29.90;36.30
26954;DHT22;14508;50.924;11.600;2022-07-29T11:57:53;30.00;36.40
26954;DHT22;14508;50.924;11.600;2022-07-29T12:00:26;29.90;36.30
26954;DHT22;14508;50.924;11.600;2022-07-29T12:02:55;29.80;36.50
26954;DHT22;14508;50.924;11.600;2022-07-29T12:05:34;29.70;36.60
26954;DHT22;14508;50.924;11.600;2022-07-29T12:08:20;29.50;37.00
26954;DHT22;14508;50.924;11.600;2022-07-29T12:10:48;29.40;37.00
26954;DHT22;14508;50.924;11.600;2022-07-29T12:13:16;29.30;37.20
26954;DHT22;14508;50.924;11.600;2022-07-29T12:15:52;29.20;37.30
26954;DHT22;14508;50.924;11.600;2022-07-29T12:18:21;29.20;37.50
26954;DHT22;14508;50.924;11.600;2022-07-29T12:20:48;29.20;37.50
26954;DHT22;14508;50.924;11.600;2022-07-29T12:23:15;29.20;37.40
26954;DHT22;14508;50.924;11.600;2022-07-29T12:25:44;29.30;37.20
26954;DHT22;14508;50.924;11.600;2022-07-29T12:28:13;29.30;37.10
26954;DHT22;14508;50.924;11.600;2022-07-29T12:30:43;29.20;37.10
26954;DHT22;14508;50.924;11.600;2022-07-29T12:33:16;29.20;37.30
26954;DHT22;14508;50.924;11.600;2022-07-29T12:35:46;29.20;37.40
26954;DHT22;14508;50.924;11.600;2022-07-29T12:38:14;29.10;37.60
26954;DHT22;14508;50.924;11.600;2022-07-29T12:40:42;29.10;37.50
26954;DHT22;14508;50.924;11.600;2022-07-29T12:43:10;29.00;37.60
26954;DHT22;14508;50.924;11.600;2022-07-29T12:45:37;28.90;37.80
26954;DHT22;14508;50.924;11.600;2022-07-29T12:48:05;28.90;38.00
26954;DHT22;14508;50.924;11.600;2022-07-29T12:50:34;28.90;38.30
26954;DHT22;14508;50.924;11.600;2022-07-29T12:53:13;28.90;38.50
26954;DHT22;14508;50.924;11.600;2022-07-29T12:55:44;28.90;38.50
26954;DHT22;14508;50.924;11.600;2022-07-29T12:58:24;28.90;38.50
26954;DHT22;14508;50.924;11.600;2022-07-29T13:01:02;28.80;38.70
26954;DHT22;14508;50.924;11.600;2022-07-29T13:03:42;28.70;38.40
26954;DHT22;14508;50.924;11.600;2022-07-29T13:06:27;28.60;38.50
26954;DHT22;14508;50.924;11.600;2022-07-29T13:09:05;28.60;38.60
26954;DHT22;14508;50.924;11.600;2022-07-29T13:11:33;28.50;38.70
26954;DHT22;14508;50.924;11.600;2022-07-29T13:14:00;28.40;38.80
26954;DHT22;14508;50.924;11.600;2022-07-29T13:16:27;28.40;39.00
26954;DHT22;14508;50.924;11.600;2022-07-29T13:19:05;28.40;39.00
26954;DHT22;14508;50.924;11.600;2022-07-29T13:21:32;28.40;39.10
26954;DHT22;14508;50.924;11.600;2022-07-29T13:23:59;28.40;39.30
26954;DHT22;14508;50.924;11.600;2022-07-29T13:26:27;28.30;39.20
26954;DHT22;14508;50.924;11.600;2022-07-29T13:28:54;28.30;39.00
26954;DHT22;14508;50.924;11.600;2022-07-29T13:31:21;28.30;39.10
26954;DHT22;14508;50.924;11.600;2022-07-29T13:33:48;28.20;39.80
26954;DHT22;14508;50.924;11.600;2022-07-29T13:36:15;28.20;39.50
26954;DHT22;14508;50.924;11.600;2022-07-29T13:38:42;28.20;39.60
26954;DHT22;14508;50.924;11.600;2022-07-29T13:41:08;28.30;39.60
26954;DHT22;14508;50.924;11.600;2022-07-29T13:43:36;28.30;39.40
26954;DHT22;14508;50.924;11.600;2022-07-29T13:46:03;28.30;39.50
26954;DHT22;14508;50.924;11.600;2022-07-29T13:48:30;28.30;39.60
26954;DHT22;14508;50.924;11.600;2022-07-29T13:50:56;28.40;39.40
26954;DHT22;14508;50.924;11.600;2022-07-29T13:53:23;28.50;39.50
26954;DHT22;14508;50.924;11.600;2022-07-29T13:55:50;28.50;41.00
26954;DHT22;14508;50.924;11.600;2022-07-29T13:58:17;28.50;41.80
26954;DHT22;14508;50.924;11.600;2022-07-29T14:00:45;28.40;42.30
26954;DHT22;14508;50.924;11.600;2022-07-29T14:03:12;28.50;42.80
26954;DHT22;14508;50.924;11.600;2022-07-29T14:05:38;28.50;43.10
26954;DHT22;14508;50.924;11.600;2022-07-29T14:08:05;28.50;43.40
26954;DHT22;14508;50.924;11.600;2022-07-29T14:10:32;28.60;43.50
26954;DHT22;14508;50.924;11.600;2022-07-29T14:12:59;28.60;43.50
26954;DHT22;14508;50.924;11.600;2022-07-29T14:15:25;28.70;43.60
26954;DHT22;14508;50.924;11.600;2022-07-29T14:17:53;28.80;43.60
26954;DHT22;14508;50.924;11.600;2022-07-29T14:20:20;28.90;43.50
26954;DHT22;14508;50.924;11.600;2022-07-29T14:22:47;29.00;43.50
26954;DHT22;14508;50.924;11.600;2022-07-29T14:25:13;29.00;43.50
26954;DHT22;14508;50.924;11.600;2022-07-29T14:27:40;29.00;43.50
26954;DHT22;14508;50.924;11.600;2022-07-29T14:30:08;28.90;43.60
26954;DHT22;14508;50.924;11.600;2022-07-29T14:32:35;29.00;43.70
26954;DHT22;14508;50.924;11.600;2022-07-29T14:35:04;29.10;43.60
26954;DHT22;14508;50.924;11.600;2022-07-29T14:37:30;29.20;43.60
26954;DHT22;14508;50.924;11.600;2022-07-29T14:39:57;29.40;43.50
26954;DHT22;14508;50.924;11.600;2022-07-29T14:42:28;29.60;43.40
26954;DHT22;14508;50.924;11.600;2022-07-29T14:44:55;29.90;43.20
26954;DHT22;14508;50.924;11.600;2022-07-29T14:47:22;30.20;43.00
26954;DHT22;14508;50.924;11.600;2022-07-29T14:49:49;30.40;42.70
26954;DHT22;14508;50.924;11.600;2022-07-29T14:52:17;30.50;42.60
26954;DHT22;14508;50.924;11.600;2022-07-29T14:54:44;30.50;42.30
26954;DHT22;14508;50.924;11.600;2022-07-29T14:57:11;30.40;42.20
26954;DHT22;14508;50.924;11.600;2022-07-29T14:59:37;30.30;42.20
26954;DHT22;14508;50.924;11.600;2022-07-29T15:02:04;30.10;42.40
26954;DHT22;14508;50.924;11.600;2022-07-29T15:04:31;30.10;42.40
26954;DHT22;14508;50.924;11.600;2022-07-29T15:06:58;30.00;42.50
26954;DHT22;14508;50.924;11.600;2022-07-29T15:09:26;29.90;42.50
26954;DHT22;14508;50.924;11.600;2022-07-29T15:11:52;29.90;42.60
26954;DHT22;14508;50.924;11.600;2022-07-29T15:14:19;29.80;42.30
26954;DHT22;14508;50.924;11.600;2022-07-29T15:16:46;29.80;42.00
26954;DHT22;14508;50.924;11.600;2022-07-29T15:19:13;29.70;41.40
26954;DHT22;14508;50.924;11.600;2022-07-29T15:21:39;29.70;41.40
26954;DHT22;14508;50.924;11.600;2022-07-29T15:24:06;29.60;41.50
26954;DHT22;14508;50.924;11.600;2022-07-29T15:26:34;29.70;41.40
26954;DHT22;14508;50.924;11.600;2022-07-29T15:29:01;29.60;41.00
26954;DHT22;14508;50.924;11.600;2022-07-29T15:31:28;29.70;41.10
26954;DHT22;14508;50.924;11.600;2022-07-29T15:33:55;29.80;41.00